Time;durP1;ratioP1;P1;durP2;ratioP2;P2;SDS_P1;SDS_P2;PMS_P1;PMS_P2;Temp;Humidity;BMP_temperature;BMP_pressure;BME280_temperature;BME280_humidity;BME280_pressure;Samples;Min_cycle;Max_cycle;Signal;HPM_P1;HPM_P2
2022/04/01 00:01:06;;;;;;;9.52;4.65;;;;;;;;;;5086729;28;20131;-66
2022/04/01 00:03:35;;;;;;;8.88;5.07;;;;;;;;;;5075366;28;20079;-66
2022/04/01 00:06:07;;;;;;;8.55;4.63;;;;;;;;;;5088173;28;20040;-66
2022/04/01 00:08:35;;;;;;;8.93;4.18;;;;;;;;;;5090535;28;20195;-67
2022/04/01 00:11:06;;;;;;;9.52;4.65;;;;;;;;;;5083864;28;20070;-66
2022/04/01 00:13:34;;;;;;;10.32;4.25;;;;;;;;;;5087933;28;20139;-66
2022/04/01 00:16:05;;;;;;;7.00;3.78;;;;;;;;;;5088367;28;20086;-66
2022/04/01 00:18:33;;;;;;;8.15;4.30;;;;;;;;;;5087578;28;20071;-66
2022/04/01 00:21:01;;;;;;;7.95;3.67;;;;;;;;;;5087393;28;20106;-66
2022/04/01 00:23:33;;;;;;;7.35;3.85;;;;;;;;;;5080688;28;20048;-67
2022/04/01 00:26:02;;;;;;;6.00;3.50;;;;;;;;;;5090075;28;20052;-66
2022/04/01 00:28:34;;;;;;;7.70;3.83;;;;;;;;;;5089707;28;20066;-66
2022/04/01 00:31:06;;;;;;;8.02;3.58;;;;;;;;;;5084369;28;20055;-67
2022/04/01 00:33:35;;;;;;;6.78;3.78;;;;;;;;;;5079107;28;20036;-66
2022/04/01 00:36:06;;;;;;;8.85;3.50;;;;;;;;;;5083715;28;20107;-66
2022/04/01 00:38:36;;;;;;;6.65;3.53;;;;;;;;;;5087065;28;20135;-67
2022/04/01 00:41:06;;;;;;;6.68;3.05;;;;;;;;;;5082591;28;20163;-66
2022/04/01 00:43:35;;;;;;;5.50;3.15;;;;;;;;;;5089525;28;20052;-66
2022/04/01 00:46:06;;;;;;;11.05;3.60;;;;;;;;;;5080651;28;20076;-67
2022/04/01 00:48:35;;;;;;;8.50;3.90;;;;;;;;;;5088006;28;20487;-66
2022/04/01 00:51:05;;;;;;;6.75;3.40;;;;;;;;;;5088062;28;20610;-66
2022/04/01 00:53:34;;;;;;;7.82;2.97;;;;;;;;;;5082624;28;20115;-66
2022/04/01 00:56:06;;;;;;;6.13;2.72;;;;;;;;;;5080163;28;20056;-67
2022/04/01 00:58:35;;;;;;;4.68;2.40;;;;;;;;;;5086107;28;20170;-66
2022/04/01 01:01:06;;;;;;;3.20;1.80;;;;;;;;;;5090286;28;20094;-67
2022/04/01 01:03:34;;;;;;;4.63;2.00;;;;;;;;;;5088246;28;20348;-67
2022/04/01 01:06:05;;;;;;;2.72;1.70;;;;;;;;;;5092318;28;20067;-67
2022/04/01 01:08:33;;;;;;;3.72;2.15;;;;;;;;;;5088862;28;20503;-67
2022/04/01 01:11:04;;;;;;;5.30;2.00;;;;;;;;;;5085722;28;20056;-66
2022/04/01 01:13:34;;;;;;;3.97;1.73;;;;;;;;;;5088342;28;20471;-66
2022/04/01 01:16:07;;;;;;;3.92;2.00;;;;;;;;;;5092402;28;20091;-67
2022/04/01 01:18:35;;;;;;;4.32;2.17;;;;;;;;;;5089841;28;20048;-67
2022/04/01 01:21:09;;;;;;;4.07;2.05;;;;;;;;;;5091926;28;20048;-67
2022/04/01 01:23:39;;;;;;;3.67;2.20;;;;;;;;;;5089939;28;20131;-67
2022/04/01 01:26:09;;;;;;;4.05;2.08;;;;;;;;;;5092975;28;20075;-67
2022/04/01 01:28:37;;;;;;;4.65;2.53;;;;;;;;;;5087104;28;20103;-67
2022/04/01 01:31:08;;;;;;;6.88;2.53;;;;;;;;;;5081520;28;20498;-67
2022/04/01 01:33:39;;;;;;;6.05;2.95;;;;;;;;;;5090731;28;20052;-66
2022/04/01 01:36:07;;;;;;;5.28;2.03;;;;;;;;;;5076856;28;20144;-66
2022/04/01 01:38:36;;;;;;;3.38;2.13;;;;;;;;;;5091507;28;20086;-66
2022/04/01 01:41:07;;;;;;;4.32;2.60;;;;;;;;;;5081931;28;20609;-66
2022/04/01 01:43:37;;;;;;;4.75;2.63;;;;;;;;;;5081440;28;20036;-66
2022/04/01 01:46:08;;;;;;;3.60;2.30;;;;;;;;;;5076879;28;20434;-66
2022/04/01 01:48:36;;;;;;;5.78;2.65;;;;;;;;;;5080097;28;20484;-66
2022/04/01 01:56:59;;;;;;;4.32;2.38;;;;;;;;;;5035821;28;20133;-66
2022/04/01 01:59:28;;;;;;;5.07;2.95;;;;;;;;;;5041815;28;20297;-66
2022/04/01 02:01:57;;;;;;;4.57;2.45;;;;;;;;;;5060588;28;20489;-67
2022/04/01 02:04:26;;;;;;;3.97;2.13;;;;;;;;;;5084556;28;20098;-66
2022/04/01 02:06:54;;;;;;;5.03;3.00;;;;;;;;;;5086962;28;20498;-66
2022/04/01 02:09:22;;;;;;;5.43;2.85;;;;;;;;;;5091336;28;20139;-66
2022/04/01 02:11:52;;;;;;;5.82;2.70;;;;;;;;;;5088866;28;20131;-66
2022/04/01 02:14:20;;;;;;;4.18;2.85;;;;;;;;;;5091896;28;20071;-66
2022/04/01 02:16:49;;;;;;;5.35;2.92;;;;;;;;;;5079918;28;20070;-66
2022/04/01 02:19:21;;;;;;;6.97;3.08;;;;;;;;;;5084624;28;20139;-67
2022/04/01 02:21:51;;;;;;;5.93;2.78;;;;;;;;;;5090558;28;20040;-66
2022/04/01 02:24:19;;;;;;;7.35;3.25;;;;;;;;;;5087445;28;20126;-66
2022/04/01 02:26:48;;;;;;;5.75;3.50;;;;;;;;;;5088340;28;20492;-67
2022/04/01 02:29:18;;;;;;;8.02;3.65;;;;;;;;;;5090076;28;20131;-66
2022/04/01 02:31:47;;;;;;;5.53;2.83;;;;;;;;;;5086553;28;20628;-66
2022/04/01 02:34:17;;;;;;;6.90;2.92;;;;;;;;;;5085715;28;20139;-66
2022/04/01 02:36:45;;;;;;;8.35;2.80;;;;;;;;;;5089800;28;20076;-67
2022/04/01 02:39:14;;;;;;;5.82;2.97;;;;;;;;;;5090955;28;20143;-66
2022/04/01 02:41:42;;;;;;;4.68;2.83;;;;;;;;;;5089226;28;20139;-66
2022/04/01 02:44:12;;;;;;;4.82;2.90;;;;;;;;;;5091429;28;20443;-66
2022/04/01 02:46:41;;;;;;;8.32;2.97;;;;;;;;;;5088534;28;20036;-66
2022/04/01 02:49:10;;;;;;;6.00;3.20;;;;;;;;;;5088007;28;20131;-66
2022/04/01 02:51:40;;;;;;;5.65;2.95;;;;;;;;;;5088057;28;20045;-67
2022/04/01 02:54:09;;;;;;;5.50;3.00;;;;;;;;;;5091642;28;20075;-66
2022/04/01 02:56:38;;;;;;;6.32;3.00;;;;;;;;;;5086555;28;20425;-66
2022/04/01 02:59:08;;;;;;;5.78;3.20;;;;;;;;;;5089739;28;20055;-66
2022/04/01 03:01:37;;;;;;;7.05;3.40;;;;;;;;;;5084779;28;20547;-66
2022/04/01 03:04:09;;;;;;;5.05;2.90;;;;;;;;;;5081282;28;20113;-66
2022/04/01 03:06:38;;;;;;;6.15;2.58;;;;;;;;;;5089982;28;20052;-66
2022/04/01 03:09:08;;;;;;;5.38;2.08;;;;;;;;;;5075449;28;20056;-66
2022/04/01 03:11:37;;;;;;;4.43;2.60;;;;;;;;;;5086784;28;20120;-66
2022/04/01 03:14:06;;;;;;;3.85;2.00;;;;;;;;;;5088637;28;20060;-65
2022/04/01 03:16:34;;;;;;;3.63;1.90;;;;;;;;;;5090242;28;20058;-66
2022/04/01 03:19:03;;;;;;;5.00;2.00;;;;;;;;;;5087440;28;20060;-65
2022/04/01 03:21:32;;;;;;;7.43;2.70;;;;;;;;;;5089150;28;20136;-65
2022/04/01 03:24:01;;;;;;;3.63;1.85;;;;;;;;;;5089815;28;20098;-66
2022/04/01 03:26:31;;;;;;;3.53;1.95;;;;;;;;;;5087272;28;20087;-66
2022/04/01 03:29:00;;;;;;;4.47;2.25;;;;;;;;;;5077250;28;20505;-66
2022/04/01 03:31:29;;;;;;;2.58;1.58;;;;;;;;;;5088568;28;20136;-66
2022/04/01 03:33:57;;;;;;;2.55;1.65;;;;;;;;;;5088042;28;20067;-66
2022/04/01 03:36:25;;;;;;;2.97;1.60;;;;;;;;;;5082467;28;20048;-66
2022/04/01 03:38:54;;;;;;;3.00;2.08;;;;;;;;;;5089144;28;20044;-66
2022/04/01 03:41:22;;;;;;;2.67;1.25;;;;;;;;;;5088747;28;20131;-66
2022/04/01 03:43:52;;;;;;;2.17;1.38;;;;;;;;;;5078173;28;20131;-66
2022/04/01 03:46:21;;;;;;;2.92;1.88;;;;;;;;;;5088968;28;20090;-66
2022/04/01 03:48:51;;;;;;;2.92;1.60;;;;;;;;;;5089434;28;20048;-65
2022/04/01 03:51:21;;;;;;;2.10;1.58;;;;;;;;;;5088699;28;20126;-65
2022/04/01 03:53:55;;;;;;;3.53;1.90;;;;;;;;;;5090142;28;20131;-65
2022/04/01 03:56:25;;;;;;;2.85;1.58;;;;;;;;;;5089795;28;20083;-65
2022/04/01 03:58:55;;;;;;;3.35;1.70;;;;;;;;;;5089127;28;20123;-65
2022/04/01 04:01:23;;;;;;;3.28;1.67;;;;;;;;;;5086855;28;20044;-66
2022/04/01 04:03:51;;;;;;;3.45;1.70;;;;;;;;;;5072143;28;20083;-65
2022/04/01 04:06:20;;;;;;;2.60;1.77;;;;;;;;;;5088629;28;20066;-65
2022/04/01 04:08:49;;;;;;;2.53;1.77;;;;;;;;;;5089524;28;20932;-65
2022/04/01 04:11:19;;;;;;;1.95;1.67;;;;;;;;;;5088303;28;20483;-66
2022/04/01 04:13:49;;;;;;;2.20;1.40;;;;;;;;;;5089582;28;20051;-66
2022/04/01 04:16:19;;;;;;;3.42;1.80;;;;;;;;;;5088724;28;20146;-66
2022/04/01 04:18:49;;;;;;;4.07;1.63;;;;;;;;;;5084603;28;20127;-66
2022/04/01 04:21:21;;;;;;;3.15;1.77;;;;;;;;;;5092779;28;20086;-66
2022/04/01 04:23:53;;;;;;;3.20;2.00;;;;;;;;;;5090965;28;20482;-65
2022/04/01 04:26:25;;;;;;;2.97;1.65;;;;;;;;;;5088263;28;20056;-66
2022/04/01 04:28:57;;;;;;;2.70;1.58;;;;;;;;;;5073721;28;20036;-65
2022/04/01 04:31:28;;;;;;;2.38;1.63;;;;;;;;;;5086984;28;20480;-66
2022/04/01 04:33:57;;;;;;;2.55;1.70;;;;;;;;;;5086454;28;20143;-65
2022/04/01 04:36:36;;;;;;;7.00;1.70;;;;;;;;;;5089879;28;20089;-66
2022/04/01 04:39:07;;;;;;;2.67;1.50;;;;;;;;;;5088196;28;20079;-65
2022/04/01 04:41:36;;;;;;;2.30;1.48;;;;;;;;;;5091444;28;20101;-65
2022/04/01 04:44:05;;;;;;;1.80;1.42;;;;;;;;;;5087558;28;20608;-66
2022/04/01 04:46:35;;;;;;;3.22;1.55;;;;;;;;;;5090515;28;20044;-65
2022/04/01 04:49:04;;;;;;;3.35;1.67;;;;;;;;;;5090931;28;20479;-65
2022/04/01 04:51:32;;;;;;;2.92;1.42;;;;;;;;;;5090275;28;20130;-65
2022/04/01 04:54:03;;;;;;;2.33;1.40;;;;;;;;;;5087727;28;20100;-66
2022/04/01 04:56:32;;;;;;;2.58;1.45;;;;;;;;;;5092662;28;20054;-66
2022/04/01 04:59:03;;;;;;;2.88;1.00;;;;;;;;;;5086610;28;20064;-66
2022/04/01 05:01:38;;;;;;;3.08;1.40;;;;;;;;;;5082886;28;21996;-65
2022/04/01 05:04:22;;;;;;;2.33;0.98;;;;;;;;;;5086991;28;20048;-66
2022/04/01 05:06:53;;;;;;;1.83;1.10;;;;;;;;;;5081950;28;20554;-66
2022/04/01 05:09:25;;;;;;;1.88;1.30;;;;;;;;;;5080476;28;20140;-66
2022/04/01 05:11:58;;;;;;;1.70;1.00;;;;;;;;;;5084083;28;20138;-67
2022/04/01 05:14:35;;;;;;;1.80;1.15;;;;;;;;;;5088763;28;20472;-66
2022/04/01 05:17:06;;;;;;;2.25;1.55;;;;;;;;;;5091465;28;20563;-65
2022/04/01 05:19:37;;;;;;;1.55;1.20;;;;;;;;;;5085454;28;20098;-65
2022/04/01 05:22:06;;;;;;;1.63;1.20;;;;;;;;;;5084871;28;20492;-66
2022/04/01 05:24:38;;;;;;;2.00;1.10;;;;;;;;;;5084747;28;20121;-66
2022/04/01 05:27:07;;;;;;;4.45;1.40;;;;;;;;;;5084590;28;20099;-65
2022/04/01 05:29:38;;;;;;;2.13;1.38;;;;;;;;;;5087428;28;20516;-66
2022/04/01 05:32:10;;;;;;;1.50;1.25;;;;;;;;;;5087718;28;20583;-66
2022/04/01 05:34:40;;;;;;;1.42;1.15;;;;;;;;;;5083175;28;20048;-66
2022/04/01 05:37:08;;;;;;;2.00;1.38;;;;;;;;;;5083634;28;20150;-66
2022/04/01 05:39:38;;;;;;;2.10;1.02;;;;;;;;;;5088918;28;20052;-65
2022/04/01 05:42:07;;;;;;;3.10;1.30;;;;;;;;;;5086103;28;20134;-66
2022/04/01 05:44:36;;;;;;;1.50;1.05;;;;;;;;;;5088136;28;20176;-66
2022/04/01 05:47:06;;;;;;;6.80;0.98;;;;;;;;;;5088297;28;20425;-66
2022/04/01 05:49:40;;;;;;;2.78;1.20;;;;;;;;;;5086906;28;20117;-66
2022/04/01 05:52:09;;;;;;;8.35;1.20;;;;;;;;;;5086775;28;20076;-66
2022/04/01 05:54:38;;;;;;;2.55;1.10;;;;;;;;;;5087782;28;20372;-66
2022/04/01 05:57:08;;;;;;;4.30;1.35;;;;;;;;;;5087379;28;20413;-66
2022/04/01 05:59:36;;;;;;;1.40;1.00;;;;;;;;;;5080921;28;20441;-66
2022/04/01 06:02:13;;;;;;;2.22;1.17;;;;;;;;;;5083890;28;20527;-66
2022/04/01 06:04:51;;;;;;;2.88;1.10;;;;;;;;;;5086574;28;20048;-65
2022/04/01 06:07:26;;;;;;;2.25;1.10;;;;;;;;;;5078014;28;20131;-67
2022/04/01 06:09:59;;;;;;;3.53;1.20;;;;;;;;;;5076912;28;20048;-66
2022/04/01 06:12:30;;;;;;;2.60;1.10;;;;;;;;;;5083957;28;20079;-66
2022/04/01 06:15:02;;;;;;;3.80;0.98;;;;;;;;;;5085368;28;20071;-66
2022/04/01 06:17:37;;;;;;;4.13;1.40;;;;;;;;;;5076875;28;20044;-66
2022/04/01 06:20:08;;;;;;;2.47;1.20;;;;;;;;;;5076512;28;20154;-66
2022/04/01 06:22:40;;;;;;;8.27;1.52;;;;;;;;;;5084587;28;20046;-66
2022/04/01 06:25:13;;;;;;;1.80;1.10;;;;;;;;;;5091540;28;20044;-66
2022/04/01 06:27:44;;;;;;;4.80;1.35;;;;;;;;;;5084891;28;20437;-66
2022/04/01 06:30:13;;;;;;;2.97;1.27;;;;;;;;;;5079482;28;20134;-65
2022/04/01 06:32:49;;;;;;;1.98;1.15;;;;;;;;;;5080850;28;20509;-65
2022/04/01 06:35:20;;;;;;;1.30;1.00;;;;;;;;;;5081464;28;20048;-67
2022/04/01 06:37:51;;;;;;;1.20;1.10;;;;;;;;;;5082047;28;20055;-66
2022/04/01 06:40:22;;;;;;;2.38;1.33;;;;;;;;;;5086478;28;20076;-66
2022/04/01 06:42:53;;;;;;;2.28;1.10;;;;;;;;;;5087949;28;20056;-67
2022/04/01 06:45:22;;;;;;;2.13;1.27;;;;;;;;;;5083998;28;20044;-66
2022/04/01 06:47:51;;;;;;;3.17;1.85;;;;;;;;;;5076897;28;20044;-66
2022/04/01 06:50:21;;;;;;;2.40;1.05;;;;;;;;;;5067449;28;20102;-65
2022/04/01 06:52:49;;;;;;;3.28;1.10;;;;;;;;;;5086370;28;20062;-66
2022/04/01 06:55:22;;;;;;;3.00;1.23;;;;;;;;;;5080992;28;20141;-66
2022/04/01 06:57:50;;;;;;;2.75;1.27;;;;;;;;;;5086134;28;20483;-66
2022/04/01 07:00:19;;;;;;;1.77;1.20;;;;;;;;;;5085349;28;20044;-66
2022/04/01 07:02:49;;;;;;;2.00;1.00;;;;;;;;;;5089593;28;20117;-66
2022/04/01 07:05:18;;;;;;;4.50;1.50;;;;;;;;;;5084438;28;20056;-66
2022/04/01 07:07:48;;;;;;;3.85;1.65;;;;;;;;;;5088800;28;20576;-66
2022/04/01 07:10:16;;;;;;;1.73;1.05;;;;;;;;;;5089039;28;20044;-66
2022/04/01 07:12:45;;;;;;;2.38;1.20;;;;;;;;;;5085568;28;20113;-65
2022/04/01 07:15:14;;;;;;;1.80;1.00;;;;;;;;;;5088616;28;20383;-66
2022/04/01 07:17:43;;;;;;;4.57;1.48;;;;;;;;;;5090746;28;20117;-66
2022/04/01 07:20:12;;;;;;;2.47;1.00;;;;;;;;;;5084533;28;20472;-65
2022/04/01 07:22:52;;;;;;;1.95;1.23;;;;;;;;;;5088216;28;20047;-66
2022/04/01 07:25:22;;;;;;;4.00;1.20;;;;;;;;;;5081618;28;20123;-66
2022/04/01 07:27:50;;;;;;;1.50;1.00;;;;;;;;;;5088842;28;20123;-65
2022/04/01 07:30:19;;;;;;;1.05;0.80;;;;;;;;;;5083212;28;20101;-66
2022/04/01 07:32:50;;;;;;;3.58;0.90;;;;;;;;;;5087560;28;20479;-65
2022/04/01 07:35:19;;;;;;;0.85;0.68;;;;;;;;;;5087836;28;20138;-66
2022/04/01 07:37:48;;;;;;;1.17;0.98;;;;;;;;;;5077559;28;20427;-66
2022/04/01 07:40:22;;;;;;;1.63;0.88;;;;;;;;;;5084081;28;20499;-65
2022/04/01 07:42:51;;;;;;;3.10;1.00;;;;;;;;;;5073395;28;20078;-65
2022/04/01 07:45:20;;;;;;;1.20;0.90;;;;;;;;;;5088566;28;20127;-67
2022/04/01 07:47:49;;;;;;;1.30;0.70;;;;;;;;;;5088066;28;20036;-66
2022/04/01 07:50:19;;;;;;;1.05;0.60;;;;;;;;;;5083938;28;20101;-66
2022/04/01 07:52:48;;;;;;;1.73;0.80;;;;;;;;;;5083704;28;20043;-65
2022/04/01 07:55:18;;;;;;;1.25;0.70;;;;;;;;;;5085436;28;20044;-65
2022/04/01 07:57:50;;;;;;;1.17;0.60;;;;;;;;;;5082958;28;20044;-66
2022/04/01 08:00:38;;;;;;;1.33;0.70;;;;;;;;;;5098722;28;20471;-66
2022/04/01 08:03:08;;;;;;;2.80;1.73;;;;;;;;;;5089065;28;20052;-66
2022/04/01 08:05:38;;;;;;;0.90;0.75;;;;;;;;;;5083007;28;20126;-66
2022/04/01 08:08:08;;;;;;;0.77;0.68;;;;;;;;;;5081773;28;20055;-67
2022/04/01 08:10:38;;;;;;;2.13;0.80;;;;;;;;;;5080211;28;20048;-66
2022/04/01 08:13:09;;;;;;;2.22;0.60;;;;;;;;;;5091661;28;20062;-66
2022/04/01 08:15:39;;;;;;;3.85;0.85;;;;;;;;;;5089473;28;20052;-66
2022/04/01 08:18:08;;;;;;;1.05;0.73;;;;;;;;;;5089564;28;20127;-66
2022/04/01 08:20:36;;;;;;;0.82;0.50;;;;;;;;;;5090435;28;20084;-67
2022/04/01 08:23:06;;;;;;;2.67;0.68;;;;;;;;;;5089243;28;20388;-65
2022/04/01 08:25:35;;;;;;;3.42;1.20;;;;;;;;;;5086442;28;20377;-66
2022/04/01 08:28:06;;;;;;;1.70;0.63;;;;;;;;;;5088015;28;20472;-66
2022/04/01 08:30:36;;;;;;;1.23;0.90;;;;;;;;;;5092088;28;20044;-66
2022/04/01 08:33:05;;;;;;;1.10;0.80;;;;;;;;;;5090314;28;20499;-65
2022/04/01 08:35:35;;;;;;;3.05;1.13;;;;;;;;;;5097293;28;20048;-67
2022/04/01 08:38:04;;;;;;;2.25;0.90;;;;;;;;;;5094208;28;20056;-65
2022/04/01 08:40:33;;;;;;;1.25;0.73;;;;;;;;;;5087347;28;20094;-65
2022/04/01 08:43:02;;;;;;;1.42;0.52;;;;;;;;;;5088858;28;20039;-66
2022/04/01 08:45:33;;;;;;;0.52;0.43;;;;;;;;;;5090698;28;20048;-66
2022/04/01 08:48:04;;;;;;;0.60;0.60;;;;;;;;;;5088315;28;20054;-66
2022/04/01 08:50:34;;;;;;;0.95;0.50;;;;;;;;;;5088111;28;20076;-66
2022/04/01 08:53:03;;;;;;;3.08;0.80;;;;;;;;;;5090389;28;20499;-67
2022/04/01 08:55:32;;;;;;;7.03;0.90;;;;;;;;;;5087673;28;20040;-66
2022/04/01 08:58:01;;;;;;;1.40;0.70;;;;;;;;;;5092446;28;20108;-66
2022/04/01 09:00:39;;;;;;;1.75;0.70;;;;;;;;;;5092140;28;20058;-66
2022/04/01 09:03:10;;;;;;;1.25;0.90;;;;;;;;;;5092467;28;20396;-67
2022/04/01 09:05:44;;;;;;;3.97;0.75;;;;;;;;;;5086861;28;21099;-66
2022/04/01 09:08:15;;;;;;;1.83;0.68;;;;;;;;;;5092171;28;20540;-65
2022/04/01 09:10:51;;;;;;;1.08;0.60;;;;;;;;;;5091448;28;20048;-67
2022/04/01 09:13:20;;;;;;;0.60;0.60;;;;;;;;;;5090205;28;20050;-66
2022/04/01 09:15:49;;;;;;;2.13;0.60;;;;;;;;;;5091834;28;20048;-66
2022/04/01 09:18:32;;;;;;;1.35;0.70;;;;;;;;;;5088459;28;20385;-66
2022/04/01 09:21:05;;;;;;;1.02;0.60;;;;;;;;;;5089546;28;20396;-65
2022/04/01 09:23:34;;;;;;;1.63;0.70;;;;;;;;;;5081292;28;20053;-66
2022/04/01 09:26:05;;;;;;;0.98;0.60;;;;;;;;;;5081801;28;20052;-66
2022/04/01 09:28:35;;;;;;;1.13;0.60;;;;;;;;;;5090702;28;20048;-66
2022/04/01 09:31:09;;;;;;;1.40;0.60;;;;;;;;;;5081351;28;20101;-66
2022/04/01 09:33:58;;;;;;;4.20;0.68;;;;;;;;;;5079246;28;20076;-66
2022/04/01 09:36:29;;;;;;;1.15;0.47;;;;;;;;;;5081814;28;20044;-66
2022/04/01 09:38:59;;;;;;;3.42;1.08;;;;;;;;;;5078581;28;20139;-66
2022/04/01 09:41:36;;;;;;;2.75;1.40;;;;;;;;;;5070879;28;20048;-66
2022/04/01 09:44:23;;;;;;;;;;;;;;;;;;5069808;28;20127;-66
2022/04/01 09:46:53;;;;;;;1.67;0.80;;;;;;;;;;5065521;28;19982;-66
2022/04/01 09:49:30;;;;;;;1.25;1.10;;;;;;;;;;5068554;28;20049;-66
2022/04/01 09:52:06;;;;;;;1.27;0.70;;;;;;;;;;5066227;28;20047;-66
2022/04/01 09:54:35;;;;;;;0.47;0.43;;;;;;;;;;5071783;28;20111;-65
2022/04/01 09:57:05;;;;;;;1.65;0.63;;;;;;;;;;5067590;28;20052;-66
2022/04/01 09:59:34;;;;;;;0.60;0.52;;;;;;;;;;5064090;28;20053;-66
2022/04/01 10:02:02;;;;;;;0.98;0.68;;;;;;;;;;5069425;28;20080;-65
2022/04/01 10:04:32;;;;;;;1.40;0.70;;;;;;;;;;5071651;28;20090;-66
2022/04/01 10:07:01;;;;;;;1.20;0.80;;;;;;;;;;5064315;28;20044;-65
2022/04/01 10:09:31;;;;;;;0.75;0.60;;;;;;;;;;5070993;28;20045;-66
2022/04/01 10:12:21;;;;;;;4.70;0.93;;;;;;;;;;5064821;28;20049;-65
2022/04/01 10:14:54;;;;;;;1.48;0.85;;;;;;;;;;5065100;28;20151;-66
2022/04/01 10:17:28;;;;;;;1.60;0.60;;;;;;;;;;5064014;28;20037;-65
2022/04/01 10:19:58;;;;;;;1.30;0.88;;;;;;;;;;5075104;28;20411;-65
2022/04/01 10:22:27;;;;;;;0.85;0.60;;;;;;;;;;5060099;28;20149;-66
2022/04/01 10:25:01;;;;;;;1.25;0.85;;;;;;;;;;5067109;28;20048;-65
2022/04/01 10:27:33;;;;;;;3.00;0.80;;;;;;;;;;5072487;28;20127;-65
2022/04/01 10:30:02;;;;;;;0.70;0.70;;;;;;;;;;5062754;28;20087;-66
2022/04/01 10:32:31;;;;;;;0.73;0.70;;;;;;;;;;5064827;28;20051;-65
2022/04/01 10:35:01;;;;;;;0.60;0.60;;;;;;;;;;5074889;28;20039;-65
2022/04/01 10:37:35;;;;;;;0.60;0.60;;;;;;;;;;5083244;28;20090;-66
2022/04/01 10:40:09;;;;;;;0.73;0.52;;;;;;;;;;5085648;28;20040;-66
2022/04/01 10:42:45;;;;;;;1.15;0.68;;;;;;;;;;5088679;28;20044;-65
2022/04/01 10:45:23;;;;;;;0.75;0.70;;;;;;;;;;5091388;28;20059;-65
2022/04/01 10:53:37;;;;;;;1.00;0.70;;;;;;;;;;5087103;28;20044;-65
2022/04/01 10:56:24;;;;;;;1.17;0.73;;;;;;;;;;5086821;28;20434;-65
2022/04/01 10:59:03;;;;;;;1.10;0.70;;;;;;;;;;5080411;28;20407;-65
2022/04/01 11:01:32;;;;;;;2.45;0.70;;;;;;;;;;5088238;28;20052;-67
2022/04/01 11:04:02;;;;;;;0.75;0.40;;;;;;;;;;5085705;28;20317;-66
2022/04/01 11:06:31;;;;;;;0.98;0.77;;;;;;;;;;5079102;28;20040;-65
2022/04/01 11:09:02;;;;;;;1.70;0.70;;;;;;;;;;5087681;28;20109;-65
2022/04/01 11:11:35;;;;;;;0.88;0.68;;;;;;;;;;5078073;28;20069;-65
2022/04/01 11:14:06;;;;;;;1.27;0.88;;;;;;;;;;5081725;28;20048;-65
2022/04/01 11:16:47;;;;;;;0.93;0.80;;;;;;;;;;5084387;28;20228;-65
2022/04/01 11:19:16;;;;;;;1.17;0.80;;;;;;;;;;5083948;28;20051;-66
2022/04/01 11:21:46;;;;;;;0.63;0.60;;;;;;;;;;5082595;28;20441;-65
2022/04/01 11:24:24;;;;;;;1.25;0.82;;;;;;;;;;5089273;28;20044;-65
2022/04/01 11:26:53;;;;;;;1.75;0.60;;;;;;;;;;5080769;28;21418;-66
2022/04/01 11:29:27;;;;;;;0.60;0.52;;;;;;;;;;5085492;28;20471;-65
2022/04/01 11:32:03;;;;;;;2.10;0.90;;;;;;;;;;5088812;28;20052;-65
2022/04/01 11:34:31;;;;;;;1.20;0.63;;;;;;;;;;5085106;28;20055;-65
2022/04/01 11:37:01;;;;;;;1.98;0.80;;;;;;;;;;5085450;28;20098;-65
2022/04/01 11:39:30;;;;;;;2.35;0.68;;;;;;;;;;5082285;28;20051;-66
2022/04/01 11:41:59;;;;;;;0.82;0.70;;;;;;;;;;5084164;28;20068;-66
2022/04/01 11:44:30;;;;;;;2.70;0.95;;;;;;;;;;5085813;28;20083;-65
2022/04/01 11:46:59;;;;;;;1.73;0.82;;;;;;;;;;5083190;28;20067;-66
2022/04/01 11:49:28;;;;;;;1.17;0.70;;;;;;;;;;5088290;28;20106;-64
2022/04/01 11:51:58;;;;;;;1.30;0.77;;;;;;;;;;5086972;28;20044;-65
2022/04/01 11:54:27;;;;;;;0.70;0.63;;;;;;;;;;5086850;28;20476;-66
2022/04/01 11:56:56;;;;;;;1.02;0.60;;;;;;;;;;5084232;28;20055;-66
2022/04/01 11:59:26;;;;;;;0.65;0.60;;;;;;;;;;5086273;28;20135;-66
2022/04/01 12:01:56;;;;;;;0.60;0.60;;;;;;;;;;5080595;28;20131;-66
2022/04/01 12:04:33;;;;;;;1.73;0.82;;;;;;;;;;5087347;28;20048;-66
2022/04/01 12:09:57;;;;;;;2.65;0.82;;;;;;;;;;5086771;28;20046;-67
2022/04/01 12:12:26;;;;;;;0.60;0.60;;;;;;;;;;5083225;28;20048;-67
2022/04/01 12:14:56;;;;;;;1.27;0.70;;;;;;;;;;5089126;28;20136;-66
2022/04/01 12:17:31;;;;;;;1.43;0.87;;;;;;;;;;5087361;28;20040;-67
2022/04/01 12:20:09;;;;;;;0.90;0.70;;;;;;;;;;5086443;28;20105;-66
2022/04/01 12:22:58;;;;;;;0.93;0.90;;;;;;;;;;5084903;28;20036;-66
2022/04/01 12:25:26;;;;;;;4.32;1.00;;;;;;;;;;5083675;28;20420;-66
2022/04/01 12:27:57;;;;;;;0.80;0.80;;;;;;;;;;5084155;28;20055;-67
2022/04/01 12:30:29;;;;;;;1.90;0.80;;;;;;;;;;5079319;28;20048;-66
2022/04/01 12:33:01;;;;;;;0.90;0.75;;;;;;;;;;5078902;28;20048;-67
2022/04/01 12:35:30;;;;;;;2.47;0.93;;;;;;;;;;5083755;28;20165;-66
2022/04/01 12:38:06;;;;;;;2.50;0.98;;;;;;;;;;5083972;28;20068;-66
2022/04/01 12:40:35;;;;;;;2.72;0.90;;;;;;;;;;5083971;28;20072;-66
2022/04/01 12:43:03;;;;;;;6.82;0.98;;;;;;;;;;5081133;28;20106;-66
2022/04/01 12:45:32;;;;;;;1.77;0.90;;;;;;;;;;5082512;28;20047;-66
2022/04/01 12:48:20;;;;;;;1.30;1.00;;;;;;;;;;5078927;28;20063;-66
2022/04/01 12:50:49;;;;;;;3.38;1.10;;;;;;;;;;5091228;28;20040;-66
2022/04/01 12:53:18;;;;;;;1.25;1.02;;;;;;;;;;5086233;28;20056;-66
2022/04/01 12:55:46;;;;;;;4.03;1.10;;;;;;;;;;5084130;28;20055;-66
2022/04/01 12:58:16;;;;;;;1.55;1.00;;;;;;;;;;5083105;28;20044;-66
2022/04/01 13:00:44;;;;;;;1.27;0.95;;;;;;;;;;5076201;28;20174;-66
2022/04/01 13:03:14;;;;;;;3.03;1.17;;;;;;;;;;5082020;28;20052;-66
2022/04/01 13:05:43;;;;;;;0.77;0.77;;;;;;;;;;5073723;28;20056;-66
2022/04/01 13:08:12;;;;;;;1.75;1.00;;;;;;;;;;5087188;28;20050;-66
2022/04/01 13:10:41;;;;;;;2.33;0.80;;;;;;;;;;5086383;28;20384;-66
2022/04/01 13:13:20;;;;;;;1.73;1.30;;;;;;;;;;5088803;28;20138;-66
2022/04/01 13:15:52;;;;;;;1.77;1.15;;;;;;;;;;5080846;28;20048;-66
2022/04/01 13:18:27;;;;;;;1.77;1.10;;;;;;;;;;5073093;28;20115;-67
2022/04/01 13:20:55;;;;;;;;;;;;;;;;;;5076578;28;20135;-66
2022/04/01 13:23:25;;;;;;;1.80;0.80;;;;;;;;;;5083683;28;20349;-66
2022/04/01 13:25:53;;;;;;;1.02;0.85;;;;;;;;;;5075203;28;20127;-66
2022/04/01 13:28:22;;;;;;;1.00;0.90;;;;;;;;;;5086299;28;20098;-66
2022/04/01 13:30:51;;;;;;;0.68;0.57;;;;;;;;;;5082805;28;20048;-67
2022/04/01 13:33:19;;;;;;;1.70;1.05;;;;;;;;;;5079922;28;20048;-67
2022/04/01 13:35:50;;;;;;;1.50;1.02;;;;;;;;;;5083560;28;20075;-67
2022/04/01 13:38:19;;;;;;;2.03;1.00;;;;;;;;;;5085589;28;20060;-67
2022/04/01 13:40:49;;;;;;;1.10;0.98;;;;;;;;;;5092298;28;20040;-66
2022/04/01 13:43:17;;;;;;;2.92;1.00;;;;;;;;;;5090561;28;20044;-65
2022/04/01 13:45:47;;;;;;;1.90;1.10;;;;;;;;;;5085980;28;20044;-65
2022/04/01 13:48:17;;;;;;;1.20;1.08;;;;;;;;;;5084595;28;20127;-65
2022/04/01 13:50:46;;;;;;;1.35;0.82;;;;;;;;;;5089812;28;20194;-66
2022/04/01 13:53:17;;;;;;;1.48;1.08;;;;;;;;;;5086650;28;20051;-65
2022/04/01 13:55:46;;;;;;;0.88;0.80;;;;;;;;;;5094631;28;20054;-65
2022/04/01 13:58:15;;;;;;;1.67;0.88;;;;;;;;;;5088653;28;20055;-66
2022/04/01 14:00:45;;;;;;;1.60;0.93;;;;;;;;;;5090996;28;20046;-67
2022/04/01 14:03:14;;;;;;;1.27;1.10;;;;;;;;;;5088112;28;20054;-67
2022/04/01 14:05:44;;;;;;;0.65;0.65;;;;;;;;;;5090718;28;20051;-66
2022/04/01 14:08:15;;;;;;;2.90;1.40;;;;;;;;;;5087381;28;20056;-66
2022/04/01 14:10:45;;;;;;;1.15;1.00;;;;;;;;;;5082287;28;20056;-67
2022/04/01 14:13:14;;;;;;;1.30;1.10;;;;;;;;;;5086772;28;20056;-67
2022/04/01 14:16:11;;;;;;;1.73;0.88;;;;;;;;;;5085818;28;20044;-66
2022/04/01 14:18:40;;;;;;;1.00;0.90;;;;;;;;;;5082481;28;20075;-66
2022/04/01 14:21:09;;;;;;;1.30;1.00;;;;;;;;;;5084819;28;20048;-66
2022/04/01 14:23:37;;;;;;;1.40;1.05;;;;;;;;;;5090703;28;20469;-67
2022/04/01 14:26:11;;;;;;;1.67;0.88;;;;;;;;;;5091382;28;20445;-67
2022/04/01 14:28:40;;;;;;;2.58;1.20;;;;;;;;;;5087461;28;20063;-70
2022/04/01 14:31:09;;;;;;;2.25;1.25;;;;;;;;;;5091560;28;20040;-70
2022/04/01 14:33:38;;;;;;;2.28;1.17;;;;;;;;;;5091235;28;20044;-70
2022/04/01 14:36:11;;;;;;;1.77;1.27;;;;;;;;;;5075940;28;20055;-70
2022/04/01 14:38:41;;;;;;;0.90;0.80;;;;;;;;;;5091720;28;20051;-70
2022/04/01 14:41:12;;;;;;;1.02;0.90;;;;;;;;;;5085092;28;20487;-68
2022/04/01 14:43:42;;;;;;;1.20;1.10;;;;;;;;;;5085380;28;20596;-68
2022/04/01 14:46:11;;;;;;;2.25;1.10;;;;;;;;;;5086501;28;20101;-68
2022/04/01 14:48:40;;;;;;;1.65;1.15;;;;;;;;;;5083242;28;20043;-68
2022/04/01 14:51:11;;;;;;;1.17;0.95;;;;;;;;;;5090051;28;20105;-68
2022/04/01 14:53:39;;;;;;;1.30;1.17;;;;;;;;;;5084144;28;20040;-68
2022/04/01 14:56:08;;;;;;;1.50;1.17;;;;;;;;;;5082401;28;20040;-68
2022/04/01 14:58:38;;;;;;;4.05;1.05;;;;;;;;;;5087553;28;20588;-68
2022/04/01 15:01:09;;;;;;;1.55;1.08;;;;;;;;;;5080276;28;20454;-68
2022/04/01 15:03:38;;;;;;;1.33;1.13;;;;;;;;;;5087080;28;20455;-68
2022/04/01 15:06:26;;;;;;;1.20;1.10;;;;;;;;;;5085470;28;20131;-68
2022/04/01 15:08:55;;;;;;;2.60;1.10;;;;;;;;;;5083468;28;20048;-68
2022/04/01 15:11:24;;;;;;;1.00;0.90;;;;;;;;;;5088826;28;20040;-68
2022/04/01 15:13:54;;;;;;;1.33;1.20;;;;;;;;;;5082321;28;20483;-68
2022/04/01 15:16:22;;;;;;;1.33;1.10;;;;;;;;;;5080643;28;20054;-68
2022/04/01 15:18:51;;;;;;;1.80;1.25;;;;;;;;;;5084698;28;20507;-68